Alhambra, Illinois
Current Conditions -  °F | °C
As of 4:15 AM on Friday 19 Dec 2014 (Local Time) from KALN Reporting Station
Overcast Overcast  
Wind Chill: -1°   Ceiling: 3600
Heat Index: -1°   Visibility: 7mi
Dew Point: -3°   Wind: 0mph
Humidity: 86%   Direction: NA
Pressure: 30.29"   Gusts: NA
Location:  38.89°N, 89.73°W
Report Text: KALN 191015Z AUTO 00000KT 7SM SCT029 OVC036 M01/M03 A3029 RMK AO2 T10061026
Loading
Personal Weather Stations






























Interactive Weather Map New forecast layout! Learn more

10-Day Weather Forecast

Advertisements
Track Severe Weather on mobile